Time;durP1;ratioP1;P1;durP2;ratioP2;P2;SDS_P1;SDS_P2;PMS_P1;PMS_P2;Temp;Humidity;BMP_temperature;BMP_pressure;BME280_temperature;BME280_humidity;BME280_pressure;Samples;Min_cycle;Max_cycle;Signal;HPM_P1;HPM_P2
2022/11/20 00:01:33;;;;;;;31.05;15.02;;;;;;;;;;5038636;28;20057;-88
2022/11/20 00:04:01;;;;;;;31.45;15.75;;;;;;;;;;5038973;28;20041;-88
2022/11/20 00:06:29;;;;;;;29.23;15.50;;;;;;;;;;5039121;28;20418;-88
2022/11/20 00:08:57;;;;;;;32.80;15.10;;;;;;;;;;5042700;28;20057;-89
2022/11/20 00:11:26;;;;;;;31.35;15.75;;;;;;;;;;5058099;28;20072;-88
2022/11/20 00:13:57;;;;;;;33.90;16.00;;;;;;;;;;5040572;28;20045;-88
2022/11/20 00:16:25;;;;;;;27.58;14.65;;;;;;;;;;5038690;28;20053;-88
2022/11/20 00:18:52;;;;;;;28.55;15.50;;;;;;;;;;5040215;28;20408;-88
2022/11/20 00:21:24;;;;;;;31.17;15.40;;;;;;;;;;5045105;28;20049;-88
2022/11/20 00:23:52;;;;;;;33.80;16.52;;;;;;;;;;5042742;28;20060;-88
2022/11/20 00:26:21;;;;;;;31.30;15.45;;;;;;;;;;5019413;28;20053;-88
2022/11/20 00:28:53;;;;;;;32.42;16.42;;;;;;;;;;5015226;28;20418;-88
2022/11/20 00:31:23;;;;;;;36.42;15.55;;;;;;;;;;5014761;28;20046;-88
2022/11/20 00:33:51;;;;;;;30.10;15.63;;;;;;;;;;5014976;28;20417;-88
2022/11/20 00:36:19;;;;;;;30.00;14.75;;;;;;;;;;5015666;28;20054;-87
2022/11/20 00:38:47;;;;;;;26.92;14.38;;;;;;;;;;5014607;28;20509;-88
2022/11/20 00:41:15;;;;;;;31.80;15.25;;;;;;;;;;5014824;28;20056;-88
2022/11/20 00:43:43;;;;;;;31.50;15.40;;;;;;;;;;5014663;28;20046;-88
2022/11/20 00:46:12;;;;;;;30.52;15.18;;;;;;;;;;5006385;28;20068;-88
2022/11/20 00:48:40;;;;;;;29.38;14.77;;;;;;;;;;5014355;28;20050;-88
2022/11/20 00:51:07;;;;;;;27.35;14.25;;;;;;;;;;5014307;28;20072;-87
2022/11/20 00:53:34;;;;;;;30.88;15.65;;;;;;;;;;5014413;28;20398;-87
2022/11/20 00:56:03;;;;;;;28.58;15.00;;;;;;;;;;5014047;28;20049;-88
2022/11/20 00:58:31;;;;;;;28.63;14.82;;;;;;;;;;5013941;28;20056;-88
2022/11/20 01:01:06;;;;;;;27.00;13.65;;;;;;;;;;5014057;28;20065;-88
2022/11/20 01:03:34;;;;;;;31.92;15.65;;;;;;;;;;5014004;28;20045;-88
2022/11/20 01:06:06;;;;;;;28.10;13.82;;;;;;;;;;5017266;28;20052;-87
2022/11/20 01:08:34;;;;;;;25.25;11.30;;;;;;;;;;5014202;28;20054;-88
2022/11/20 01:11:06;;;;;;;28.52;13.98;;;;;;;;;;5013833;28;20157;-88
2022/11/20 01:13:40;;;;;;;36.13;15.75;;;;;;;;;;5014029;28;20417;-88
2022/11/20 01:16:09;;;;;;;31.13;15.00;;;;;;;;;;5013829;28;20046;-88
2022/11/20 01:18:36;;;;;;;33.35;15.95;;;;;;;;;;5019910;28;20524;-88
2022/11/20 01:21:05;;;;;;;31.38;15.68;;;;;;;;;;5014135;28;20056;-88
2022/11/20 01:23:36;;;;;;;33.58;16.10;;;;;;;;;;5020764;28;20113;-88
2022/11/20 01:26:04;;;;;;;35.88;15.90;;;;;;;;;;5023752;28;20414;-88
2022/11/20 01:28:31;;;;;;;30.65;15.73;;;;;;;;;;5029928;28;20478;-88
2022/11/20 01:30:59;;;;;;;31.27;15.93;;;;;;;;;;5013708;28;20050;-88
2022/11/20 01:33:27;;;;;;;34.75;15.98;;;;;;;;;;5013525;28;20050;-88
2022/11/20 01:35:54;;;;;;;31.52;15.10;;;;;;;;;;5013487;28;20045;-88
2022/11/20 01:38:22;;;;;;;28.55;14.05;;;;;;;;;;5030031;28;20072;-88
2022/11/20 01:40:56;;;;;;;28.75;13.82;;;;;;;;;;5013277;28;20518;-87
2022/11/20 01:43:24;;;;;;;28.33;14.23;;;;;;;;;;5029875;28;20540;-88
2022/11/20 01:45:52;;;;;;;28.23;14.55;;;;;;;;;;5013310;28;20483;-88
2022/11/20 01:48:19;;;;;;;29.80;14.80;;;;;;;;;;5013299;28;20057;-87
2022/11/20 01:50:47;;;;;;;27.33;13.25;;;;;;;;;;5013568;28;20046;-88
2022/11/20 01:53:17;;;;;;;31.17;15.68;;;;;;;;;;5013364;28;20052;-87
2022/11/20 01:55:48;;;;;;;28.02;14.32;;;;;;;;;;5029669;28;20050;-87
2022/11/20 01:58:17;;;;;;;31.08;14.80;;;;;;;;;;5013482;28;20056;-87
2022/11/20 02:00:44;;;;;;;29.98;14.85;;;;;;;;;;5029612;28;20045;-87
2022/11/20 02:03:13;;;;;;;26.92;14.65;;;;;;;;;;5029654;28;20410;-87
2022/11/20 02:05:44;;;;;;;30.85;15.25;;;;;;;;;;5012977;28;20046;-87
2022/11/20 02:08:11;;;;;;;27.38;13.88;;;;;;;;;;5012994;28;20057;-87
2022/11/20 02:10:38;;;;;;;27.20;14.60;;;;;;;;;;5013198;28;20329;-87
2022/11/20 02:15:52;;;;;;;28.75;14.35;;;;;;;;;;5013924;28;20050;-87
2022/11/20 02:18:20;;;;;;;32.33;14.18;;;;;;;;;;5012648;28;20409;-87
2022/11/20 02:20:49;;;;;;;31.15;14.43;;;;;;;;;;5012873;28;20046;-87
2022/11/20 02:23:20;;;;;;;29.30;14.43;;;;;;;;;;5012748;28;20494;-87
2022/11/20 02:25:48;;;;;;;24.52;13.05;;;;;;;;;;5012667;28;20057;-87
2022/11/20 02:28:15;;;;;;;25.58;13.88;;;;;;;;;;5012843;28;20057;-87
2022/11/20 02:30:42;;;;;;;26.85;14.02;;;;;;;;;;5012821;28;20050;-87
2022/11/20 02:33:10;;;;;;;26.55;13.75;;;;;;;;;;5012525;28;20072;-87
2022/11/20 02:35:40;;;;;;;24.77;12.93;;;;;;;;;;5012927;28;20050;-87
2022/11/20 02:38:07;;;;;;;29.15;14.30;;;;;;;;;;5021692;28;20034;-88
2022/11/20 02:40:34;;;;;;;28.77;13.75;;;;;;;;;;5021649;28;20042;-86
2022/11/20 02:43:02;;;;;;;27.83;12.73;;;;;;;;;;5012785;28;20050;-87
2022/11/20 02:45:29;;;;;;;29.50;13.60;;;;;;;;;;5012722;28;20084;-87
2022/11/20 02:47:56;;;;;;;27.58;13.73;;;;;;;;;;5016485;28;20413;-87
2022/11/20 02:50:23;;;;;;;26.45;13.57;;;;;;;;;;5016489;28;20058;-87
2022/11/20 02:52:51;;;;;;;27.40;13.40;;;;;;;;;;5016538;28;20050;-87
2022/11/20 02:55:18;;;;;;;26.45;13.85;;;;;;;;;;5016612;28;20532;-87
2022/11/20 02:57:45;;;;;;;24.58;12.90;;;;;;;;;;5016438;28;20049;-86
2022/11/20 03:00:12;;;;;;;26.90;13.25;;;;;;;;;;5016375;28;20083;-86
2022/11/20 03:02:40;;;;;;;24.10;12.05;;;;;;;;;;5016320;28;20425;-87
2022/11/20 03:05:08;;;;;;;26.20;13.32;;;;;;;;;;5016499;28;20406;-87
2022/11/20 03:07:35;;;;;;;22.95;12.73;;;;;;;;;;5016301;28;20050;-87
2022/11/20 03:10:02;;;;;;;24.83;12.68;;;;;;;;;;5016059;28;20056;-86
2022/11/20 03:12:29;;;;;;;24.63;14.00;;;;;;;;;;5016349;28;20057;-87
2022/11/20 03:14:57;;;;;;;31.20;15.52;;;;;;;;;;5016332;28;20050;-87
2022/11/20 03:17:24;;;;;;;27.67;14.23;;;;;;;;;;5016094;28;20433;-87
2022/11/20 03:19:51;;;;;;;31.58;14.95;;;;;;;;;;5035646;28;20049;-87
2022/11/20 03:22:18;;;;;;;28.23;13.25;;;;;;;;;;5035578;28;20045;-86
2022/11/20 03:24:46;;;;;;;30.95;14.07;;;;;;;;;;5035487;28;20050;-87
2022/11/20 03:27:13;;;;;;;27.20;13.25;;;;;;;;;;5035816;28;20064;-87
2022/11/20 03:29:40;;;;;;;24.27;12.95;;;;;;;;;;5035585;28;20053;-86
2022/11/20 03:32:07;;;;;;;25.52;12.68;;;;;;;;;;5035856;28;20404;-86
2022/11/20 03:34:35;;;;;;;46.55;23.45;;;;;;;;;;5036145;28;20373;-87
2022/11/20 03:37:02;;;;;;;30.15;14.70;;;;;;;;;;5042993;28;20045;-87
2022/11/20 03:39:29;;;;;;;26.38;13.30;;;;;;;;;;5045013;28;20413;-86
2022/11/20 03:41:56;;;;;;;26.90;12.80;;;;;;;;;;5036695;28;20045;-86
2022/11/20 03:44:24;;;;;;;27.15;12.70;;;;;;;;;;5035353;28;20056;-87
2022/11/20 03:46:51;;;;;;;26.98;13.20;;;;;;;;;;5035454;28;20072;-87
2022/11/20 03:49:18;;;;;;;25.90;13.00;;;;;;;;;;5034708;28;20053;-87
2022/11/20 03:51:46;;;;;;;30.67;12.88;;;;;;;;;;5038007;28;20045;-88
2022/11/20 03:54:14;;;;;;;27.98;12.85;;;;;;;;;;5049973;28;20070;-87
2022/11/20 03:56:42;;;;;;;23.55;13.07;;;;;;;;;;5035806;28;20042;-87
2022/11/20 03:59:10;;;;;;;26.65;13.52;;;;;;;;;;5034680;28;20047;-86
2022/11/20 04:01:38;;;;;;;27.77;13.77;;;;;;;;;;5035041;28;20069;-86
2022/11/20 04:04:06;;;;;;;24.10;12.25;;;;;;;;;;5034687;28;20059;-86
2022/11/20 04:06:37;;;;;;;29.52;13.45;;;;;;;;;;5034867;28;20049;-86
2022/11/20 04:09:05;;;;;;;26.25;12.32;;;;;;;;;;5034794;28;20052;-86
2022/11/20 04:11:33;;;;;;;26.70;12.52;;;;;;;;;;5035000;28;20049;-86
2022/11/20 04:14:02;;;;;;;24.20;11.93;;;;;;;;;;5034844;28;20053;-86
2022/11/20 04:16:30;;;;;;;24.23;11.75;;;;;;;;;;5034644;28;20076;-86
2022/11/20 04:18:58;;;;;;;27.98;12.57;;;;;;;;;;5034622;28;20057;-86
2022/11/20 04:21:26;;;;;;;24.38;12.23;;;;;;;;;;5034407;28;20052;-86
2022/11/20 04:23:54;;;;;;;25.05;12.50;;;;;;;;;;5035473;28;20128;-86
2022/11/20 04:26:22;;;;;;;23.67;11.85;;;;;;;;;;5034540;28;20516;-86
2022/11/20 04:28:50;;;;;;;29.45;12.13;;;;;;;;;;5034351;28;20045;-86
2022/11/20 04:31:19;;;;;;;22.98;12.15;;;;;;;;;;5034282;28;20049;-86
2022/11/20 04:33:46;;;;;;;24.25;11.90;;;;;;;;;;5034344;28;20374;-86
2022/11/20 04:36:15;;;;;;;22.02;11.40;;;;;;;;;;5034217;28;20065;-86
2022/11/20 04:38:43;;;;;;;25.13;12.48;;;;;;;;;;5034056;28;20077;-86
2022/11/20 04:41:14;;;;;;;22.83;12.13;;;;;;;;;;5034062;28;20045;-86
2022/11/20 04:43:41;;;;;;;23.60;11.85;;;;;;;;;;5032208;28;20062;-87
2022/11/20 04:46:08;;;;;;;22.75;12.32;;;;;;;;;;5033959;28;20059;-86
2022/11/20 04:48:35;;;;;;;21.98;11.15;;;;;;;;;;5034024;28;20045;-86
2022/11/20 04:51:04;;;;;;;22.75;11.43;;;;;;;;;;5034061;28;20061;-86
2022/11/20 04:53:31;;;;;;;23.42;11.52;;;;;;;;;;5033948;28;20055;-86
2022/11/20 04:56:02;;;;;;;23.83;11.85;;;;;;;;;;5033617;28;20050;-86
2022/11/20 04:58:30;;;;;;;25.00;11.80;;;;;;;;;;5033954;28;20057;-86
2022/11/20 05:01:03;;;;;;;20.33;11.30;;;;;;;;;;5033996;28;20046;-87
2022/11/20 05:03:30;;;;;;;24.83;11.63;;;;;;;;;;5034260;28;20601;-86
2022/11/20 05:06:01;;;;;;;23.00;11.57;;;;;;;;;;5035248;28;20503;-86
2022/11/20 05:08:28;;;;;;;24.55;12.30;;;;;;;;;;5050959;28;20057;-87
2022/11/20 05:11:00;;;;;;;27.50;13.10;;;;;;;;;;5034893;28;20148;-86
2022/11/20 05:13:27;;;;;;;25.38;12.93;;;;;;;;;;5033397;28;20481;-87
2022/11/20 05:15:54;;;;;;;23.48;11.65;;;;;;;;;;5033653;28;20486;-86
2022/11/20 05:18:22;;;;;;;21.55;11.90;;;;;;;;;;5033335;28;20059;-86
2022/11/20 05:20:55;;;;;;;23.23;12.10;;;;;;;;;;5033623;28;20045;-86
2022/11/20 05:23:22;;;;;;;28.52;12.88;;;;;;;;;;5033249;28;20049;-86
2022/11/20 05:25:52;;;;;;;21.58;12.27;;;;;;;;;;5033456;28;20140;-87
2022/11/20 05:28:25;;;;;;;24.80;12.98;;;;;;;;;;5033479;28;20065;-86
2022/11/20 05:30:52;;;;;;;26.75;12.55;;;;;;;;;;5033364;28;20474;-87
2022/11/20 05:33:19;;;;;;;33.22;13.55;;;;;;;;;;5033417;28;20413;-87
2022/11/20 05:35:48;;;;;;;24.65;12.82;;;;;;;;;;5033268;28;20056;-86
2022/11/20 05:38:15;;;;;;;28.42;14.07;;;;;;;;;;5032855;28;20049;-87
2022/11/20 05:40:42;;;;;;;28.48;14.10;;;;;;;;;;5033160;28;20049;-86
2022/11/20 05:43:09;;;;;;;25.50;12.40;;;;;;;;;;5033209;28;20053;-87
2022/11/20 05:45:37;;;;;;;24.65;12.75;;;;;;;;;;5033569;28;20059;-86
2022/11/20 05:48:04;;;;;;;25.88;13.90;;;;;;;;;;5032727;28;20053;-87
2022/11/20 05:50:31;;;;;;;25.95;11.85;;;;;;;;;;5032794;28;20049;-87
2022/11/20 05:52:59;;;;;;;33.30;16.02;;;;;;;;;;5033108;28;20057;-87
2022/11/20 05:55:27;;;;;;;44.55;18.98;;;;;;;;;;5032370;28;20056;-86
2022/11/20 05:57:55;;;;;;;35.05;17.17;;;;;;;;;;5032548;28;20049;-87
2022/11/20 06:00:22;;;;;;;34.42;16.55;;;;;;;;;;5032817;28;20045;-87
2022/11/20 06:02:50;;;;;;;28.02;13.57;;;;;;;;;;5032915;28;20049;-87
2022/11/20 06:05:17;;;;;;;23.75;12.02;;;;;;;;;;5032712;28;20084;-87
2022/11/20 06:07:44;;;;;;;24.55;13.52;;;;;;;;;;5032621;28;20057;-86
2022/11/20 06:10:12;;;;;;;28.77;12.80;;;;;;;;;;5032596;28;20509;-87
2022/11/20 06:12:39;;;;;;;20.65;11.18;;;;;;;;;;5032092;28;20055;-87
2022/11/20 06:15:06;;;;;;;29.23;11.50;;;;;;;;;;5033542;28;20064;-87
2022/11/20 06:17:34;;;;;;;25.40;12.25;;;;;;;;;;5032402;28;20469;-86
2022/11/20 06:20:01;;;;;;;24.02;11.30;;;;;;;;;;5033056;28;20060;-87
2022/11/20 06:22:28;;;;;;;24.52;12.95;;;;;;;;;;5049956;28;20049;-87
2022/11/20 06:25:00;;;;;;;25.88;13.82;;;;;;;;;;5035745;28;20054;-86
2022/11/20 06:27:31;;;;;;;33.20;17.85;;;;;;;;;;5033092;28;20049;-87
2022/11/20 06:29:58;;;;;;;28.55;11.82;;;;;;;;;;5032701;28;20053;-86
2022/11/20 06:32:25;;;;;;;28.55;15.40;;;;;;;;;;5032827;28;20417;-87
2022/11/20 06:34:52;;;;;;;34.13;18.17;;;;;;;;;;5032769;28;20046;-87
2022/11/20 06:37:19;;;;;;;53.40;29.50;;;;;;;;;;5032988;28;20056;-87
2022/11/20 06:39:47;;;;;;;64.22;32.75;;;;;;;;;;5033268;28;20061;-86
2022/11/20 06:42:14;;;;;;;110.15;59.92;;;;;;;;;;5032656;28;20180;-87
2022/11/20 06:44:41;;;;;;;34.38;17.67;;;;;;;;;;5031754;28;20502;-87
2022/11/20 06:47:09;;;;;;;50.47;29.67;;;;;;;;;;5032916;28;20054;-87
2022/11/20 06:49:38;;;;;;;28.17;16.10;;;;;;;;;;5032429;28;20061;-87
2022/11/20 06:52:05;;;;;;;27.70;13.50;;;;;;;;;;5032589;28;20489;-87
2022/11/20 06:54:32;;;;;;;35.15;17.95;;;;;;;;;;5032378;28;20053;-87
2022/11/20 06:56:59;;;;;;;29.83;15.00;;;;;;;;;;5034335;28;20049;-87
2022/11/20 06:59:27;;;;;;;25.05;13.38;;;;;;;;;;5038263;28;20052;-87
2022/11/20 07:01:54;;;;;;;25.50;13.40;;;;;;;;;;5034565;28;20401;-87
2022/11/20 07:04:21;;;;;;;31.52;15.25;;;;;;;;;;5031861;28;20053;-87
2022/11/20 07:06:48;;;;;;;46.40;27.77;;;;;;;;;;5031767;28;20046;-87
2022/11/20 07:09:16;;;;;;;35.17;17.52;;;;;;;;;;5031340;28;20470;-87
2022/11/20 07:11:43;;;;;;;33.95;17.65;;;;;;;;;;5031705;28;20059;-87
2022/11/20 07:14:10;;;;;;;38.70;22.05;;;;;;;;;;5031488;28;20049;-88
2022/11/20 07:16:37;;;;;;;28.00;16.15;;;;;;;;;;5032101;28;20059;-87
2022/11/20 07:19:04;;;;;;;22.08;13.38;;;;;;;;;;5030546;28;20057;-86
2022/11/20 07:21:32;;;;;;;25.30;14.60;;;;;;;;;;5031411;28;20162;-86
2022/11/20 07:23:59;;;;;;;34.42;13.63;;;;;;;;;;5031405;28;20054;-86
2022/11/20 07:26:26;;;;;;;32.25;13.10;;;;;;;;;;5031604;28;20051;-87
2022/11/20 07:28:53;;;;;;;32.50;15.18;;;;;;;;;;5031507;28;20057;-87
2022/11/20 07:31:21;;;;;;;41.92;15.45;;;;;;;;;;5032105;28;20054;-87
2022/11/20 07:33:48;;;;;;;35.25;15.02;;;;;;;;;;5036130;28;20061;-87
2022/11/20 07:36:15;;;;;;;27.40;12.70;;;;;;;;;;5041149;28;20052;-87
2022/11/20 07:38:42;;;;;;;36.42;16.08;;;;;;;;;;5047039;28;20045;-86
2022/11/20 07:41:10;;;;;;;30.27;14.40;;;;;;;;;;5035136;28;20046;-87
2022/11/20 07:43:37;;;;;;;30.45;14.60;;;;;;;;;;5034954;28;20136;-86
2022/11/20 07:46:07;;;;;;;32.40;12.40;;;;;;;;;;5034895;28;20079;-87
2022/11/20 07:48:34;;;;;;;22.77;11.85;;;;;;;;;;5035721;28;20053;-87
2022/11/20 07:51:02;;;;;;;26.17;12.13;;;;;;;;;;5034662;28;20124;-87
2022/11/20 07:53:29;;;;;;;26.88;13.05;;;;;;;;;;5034797;28;20045;-86
2022/11/20 07:55:59;;;;;;;27.42;13.70;;;;;;;;;;5034639;28;20140;-87
2022/11/20 07:58:27;;;;;;;26.10;13.65;;;;;;;;;;5034517;28;20054;-86
2022/11/20 08:00:54;;;;;;;25.63;14.43;;;;;;;;;;5035000;28;20045;-86
2022/11/20 08:03:21;;;;;;;26.02;14.05;;;;;;;;;;5036080;28;20053;-87
2022/11/20 08:05:52;;;;;;;36.15;17.48;;;;;;;;;;5034830;28;20243;-86
2022/11/20 08:08:20;;;;;;;39.15;15.60;;;;;;;;;;5035052;28;20053;-86
2022/11/20 08:10:47;;;;;;;34.33;15.75;;;;;;;;;;5035359;28;20055;-86
2022/11/20 08:16:00;;;;;;;36.08;16.50;;;;;;;;;;5036138;28;20064;-86
2022/11/20 08:18:27;;;;;;;35.20;18.02;;;;;;;;;;5034533;28;20489;-87
2022/11/20 08:20:58;;;;;;;35.00;16.70;;;;;;;;;;5035268;28;20053;-87
2022/11/20 08:23:25;;;;;;;29.90;13.90;;;;;;;;;;5035080;28;20053;-86
2022/11/20 08:25:52;;;;;;;30.05;15.13;;;;;;;;;;5034902;28;20049;-86
2022/11/20 08:28:20;;;;;;;39.33;16.63;;;;;;;;;;5034649;28;20589;-87
2022/11/20 08:30:49;;;;;;;32.83;16.23;;;;;;;;;;5034956;28;20053;-86
2022/11/20 08:33:17;;;;;;;44.83;18.15;;;;;;;;;;5035001;28;20045;-86
2022/11/20 08:35:45;;;;;;;42.25;22.65;;;;;;;;;;5034572;28;20093;-86
2022/11/20 08:38:12;;;;;;;49.58;25.85;;;;;;;;;;5035123;28;20055;-85
2022/11/20 08:40:39;;;;;;;26.15;13.13;;;;;;;;;;5034812;28;20136;-87
2022/11/20 08:43:07;;;;;;;22.45;12.63;;;;;;;;;;5034613;28;20603;-87
2022/11/20 08:45:34;;;;;;;22.75;12.63;;;;;;;;;;5034185;28;20053;-87
2022/11/20 08:48:05;;;;;;;26.10;12.48;;;;;;;;;;5035122;28;20486;-86
2022/11/20 08:50:32;;;;;;;25.52;13.02;;;;;;;;;;5038455;28;20053;-87
2022/11/20 08:53:06;;;;;;;31.83;14.93;;;;;;;;;;5047927;28;20055;-86
2022/11/20 08:55:35;;;;;;;43.85;22.63;;;;;;;;;;5034879;28;20053;-86
2022/11/20 08:58:08;;;;;;;32.05;18.23;;;;;;;;;;5034178;28;20119;-87
2022/11/20 09:00:35;;;;;;;30.38;17.45;;;;;;;;;;5034307;28;20057;-86
2022/11/20 09:03:02;;;;;;;39.88;23.38;;;;;;;;;;5035588;28;20053;-86
2022/11/20 09:05:30;;;;;;;34.42;16.17;;;;;;;;;;5034628;28;20053;-86
2022/11/20 09:07:57;;;;;;;26.92;14.90;;;;;;;;;;5034380;28;20411;-86
2022/11/20 09:10:25;;;;;;;44.92;20.25;;;;;;;;;;5034416;28;20057;-87
2022/11/20 09:12:53;;;;;;;49.83;24.65;;;;;;;;;;5034982;28;20524;-86
2022/11/20 09:15:20;;;;;;;187.68;89.18;;;;;;;;;;5034169;28;20061;-86
2022/11/20 09:17:54;;;;;;;55.58;22.55;;;;;;;;;;5033614;28;20064;-86
2022/11/20 09:20:21;;;;;;;64.68;39.80;;;;;;;;;;5033774;28;20062;-86
2022/11/20 09:22:49;;;;;;;38.88;19.55;;;;;;;;;;5033752;28;20482;-86
2022/11/20 09:25:16;;;;;;;24.05;14.88;;;;;;;;;;5033697;28;20486;-86
2022/11/20 09:27:45;;;;;;;27.20;16.33;;;;;;;;;;5037832;28;20049;-87
2022/11/20 09:30:14;;;;;;;26.27;14.80;;;;;;;;;;5050370;28;20455;-87
2022/11/20 09:32:41;;;;;;;32.08;17.40;;;;;;;;;;5050072;28;20073;-87
2022/11/20 09:35:09;;;;;;;26.85;13.63;;;;;;;;;;5050291;28;20053;-86
2022/11/20 09:37:36;;;;;;;30.52;14.30;;;;;;;;;;5049771;28;20489;-86
2022/11/20 09:40:06;;;;;;;20.30;12.88;;;;;;;;;;5049204;28;20559;-86
2022/11/20 09:42:43;;;;;;;22.20;12.18;;;;;;;;;;5049905;28;20049;-86
2022/11/20 09:45:16;;;;;;;34.05;18.63;;;;;;;;;;5049828;28;20504;-86
2022/11/20 09:48:03;;;;;;;29.10;14.68;;;;;;;;;;5049618;28;20075;-86
2022/11/20 09:50:31;;;;;;;30.60;15.80;;;;;;;;;;5016734;28;20497;-86
2022/11/20 09:53:04;;;;;;;21.13;12.98;;;;;;;;;;5050649;28;20045;-86
2022/11/20 09:55:31;;;;;;;;;;;;;;;;;;5050227;28;20507;-87
2022/11/20 09:58:00;;;;;;;28.30;16.35;;;;;;;;;;5033315;28;19921;-85
2022/11/20 10:00:28;;;;;;;30.83;19.38;;;;;;;;;;5049952;28;20056;-87
2022/11/20 10:03:03;;;;;;;21.08;12.68;;;;;;;;;;5051226;28;20050;-87
2022/11/20 10:05:44;;;;;;;25.63;14.27;;;;;;;;;;5064092;28;20057;-88
2022/11/20 10:08:18;;;;;;;64.57;33.97;;;;;;;;;;5054523;28;20053;-88
2022/11/20 10:10:53;;;;;;;31.52;19.00;;;;;;;;;;5050925;28;20077;-87
2022/11/20 10:13:38;;;;;;;34.42;19.63;;;;;;;;;;5051777;28;20049;-86
2022/11/20 10:16:24;;;;;;;21.65;13.50;;;;;;;;;;5052965;28;20053;-87
2022/11/20 10:19:04;;;;;;;24.20;14.70;;;;;;;;;;5053777;28;20054;-88
2022/11/20 10:21:33;;;;;;;23.65;14.55;;;;;;;;;;5049949;28;20401;-87
2022/11/20 10:24:15;;;;;;;34.63;15.85;;;;;;;;;;5050162;28;20071;-87
2022/11/20 10:26:57;;;;;;;46.75;29.02;;;;;;;;;;5050421;28;20056;-87
2022/11/20 10:29:30;;;;;;;31.45;17.40;;;;;;;;;;5032598;28;20057;-87
2022/11/20 10:32:00;;;;;;;23.52;14.45;;;;;;;;;;5049865;28;20060;-88
2022/11/20 10:34:32;;;;;;;21.15;13.85;;;;;;;;;;5049498;28;20140;-88
2022/11/20 10:37:03;;;;;;;26.80;16.38;;;;;;;;;;5050412;28;20049;-88
2022/11/20 10:39:34;;;;;;;24.30;16.45;;;;;;;;;;5049486;28;20381;-88
2022/11/20 10:42:02;;;;;;;29.20;16.77;;;;;;;;;;5050196;28;20057;-88
2022/11/20 10:47:22;;;;;;;24.90;16.30;;;;;;;;;;5033168;28;20063;-88
2022/11/20 10:49:51;;;;;;;24.33;15.50;;;;;;;;;;5049465;28;20054;-88
2022/11/20 10:52:34;;;;;;;24.63;15.07;;;;;;;;;;5049395;28;20060;-88
2022/11/20 10:55:02;;;;;;;;;;;;;;;;;;5049540;28;20060;-88
2022/11/20 10:57:36;;;;;;;25.67;15.45;;;;;;;;;;5033174;28;20000;-88
2022/11/20 11:00:09;;;;;;;24.73;15.27;;;;;;;;;;5051190;28;20060;-88
2022/11/20 11:02:36;;;;;;;;;;;;;;;;;;5049617;28;20053;-87
2022/11/20 11:05:30;;;;;;;26.63;17.00;;;;;;;;;;5032676;28;19925;-87
2022/11/20 11:07:58;;;;;;;25.73;14.82;;;;;;;;;;5017682;28;20059;-88
2022/11/20 11:10:33;;;;;;;19.58;12.95;;;;;;;;;;5053526;28;20053;-88
2022/11/20 11:13:01;;;;;;;21.88;13.68;;;;;;;;;;5053694;28;20133;-88
2022/11/20 11:15:38;;;;;;;21.92;14.10;;;;;;;;;;5054088;28;20059;-88
2022/11/20 11:18:09;;;;;;;37.63;23.13;;;;;;;;;;5058065;28;20056;-89
2022/11/20 11:20:36;;;;;;;49.08;29.77;;;;;;;;;;5065705;28;20390;-88
2022/11/20 11:23:04;;;;;;;38.90;25.77;;;;;;;;;;5053456;28;20049;-88
2022/11/20 11:25:35;;;;;;;35.45;23.33;;;;;;;;;;5052535;28;20050;-88
2022/11/20 11:28:05;;;;;;;22.10;14.85;;;;;;;;;;5052678;28;20313;-88
2022/11/20 11:30:43;;;;;;;25.52;14.82;;;;;;;;;;5052677;28;20050;-88
2022/11/20 11:33:11;;;;;;;22.63;14.65;;;;;;;;;;5053081;28;20103;-88
2022/11/20 11:35:46;;;;;;;23.00;15.63;;;;;;;;;;5052256;28;20051;-87
2022/11/20 11:38:19;;;;;;;24.30;17.55;;;;;;;;;;5035355;28;20053;-86
2022/11/20 11:40:47;;;;;;;22.23;15.65;;;;;;;;;;5051947;28;20064;-87
2022/11/20 11:46:14;;;;;;;25.73;14.68;;;;;;;;;;5036328;28;20050;-86
2022/11/20 11:48:41;;;;;;;43.33;27.30;;;;;;;;;;5036207;28;20060;-86
2022/11/20 11:51:20;;;;;;;22.02;13.43;;;;;;;;;;5051094;28;20072;-85
2022/11/20 11:53:47;;;;;;;76.30;57.50;;;;;;;;;;5051845;28;20489;-85
2022/11/20 11:56:15;;;;;;;25.52;15.38;;;;;;;;;;5051457;28;20409;-85
2022/11/20 11:58:42;;;;;;;26.08;15.75;;;;;;;;;;5050943;28;20068;-85
2022/11/20 12:01:12;;;;;;;27.65;14.20;;;;;;;;;;5051718;28;20053;-86
2022/11/20 12:03:41;;;;;;;49.65;30.67;;;;;;;;;;5051542;28;20052;-85
2022/11/20 12:06:13;;;;;;;35.08;19.50;;;;;;;;;;5051485;28;20049;-85
2022/11/20 12:08:58;;;;;;;34.78;20.50;;;;;;;;;;5036038;28;20505;-85
2022/11/20 12:11:45;;;;;;;32.42;16.80;;;;;;;;;;5035571;28;20057;-85
2022/11/20 12:14:26;;;;;;;31.00;18.15;;;;;;;;;;5051387;28;20049;-85
2022/11/20 12:16:55;;;;;;;22.63;14.63;;;;;;;;;;5051437;28;20057;-85
2022/11/20 12:19:22;;;;;;;24.92;15.63;;;;;;;;;;5049553;28;20068;-86
2022/11/20 12:21:59;;;;;;;23.27;15.57;;;;;;;;;;5050675;28;20053;-86
2022/11/20 12:24:48;;;;;;;31.67;15.52;;;;;;;;;;5050671;28;20053;-86
2022/11/20 12:27:21;;;;;;;118.88;77.82;;;;;;;;;;5034881;28;20059;-86
2022/11/20 12:29:48;;;;;;;51.13;34.00;;;;;;;;;;5051985;28;20045;-87
2022/11/20 12:32:15;;;;;;;36.15;19.85;;;;;;;;;;5061504;28;20036;-86
2022/11/20 12:34:55;;;;;;;27.42;16.23;;;;;;;;;;5058750;28;20132;-87
2022/11/20 12:37:42;;;;;;;27.50;16.30;;;;;;;;;;5034743;28;20056;-87
2022/11/20 12:40:24;;;;;;;24.08;16.00;;;;;;;;;;5050927;28;20056;-87
2022/11/20 12:45:47;;;;;;;27.30;17.38;;;;;;;;;;5035582;28;20444;-87
2022/11/20 12:48:17;;;;;;;29.73;17.08;;;;;;;;;;5051000;28;20064;-88
2022/11/20 12:51:06;;;;;;;31.73;18.08;;;;;;;;;;5050561;28;20140;-87
2022/11/20 12:54:01;;;;;;;32.58;17.45;;;;;;;;;;5050878;28;20065;-88
2022/11/20 12:56:35;;;;;;;28.27;17.00;;;;;;;;;;5034493;28;20060;-88
2022/11/20 12:59:21;;;;;;;32.90;18.80;;;;;;;;;;5050797;28;20049;-87
2022/11/20 13:01:51;;;;;;;29.13;16.58;;;;;;;;;;5050812;28;20132;-88
2022/11/20 13:04:18;;;;;;;33.08;20.92;;;;;;;;;;5050813;28;20076;-88
2022/11/20 13:06:46;;;;;;;32.17;21.42;;;;;;;;;;5050767;28;20140;-88
2022/11/20 13:09:14;;;;;;;32.42;19.85;;;;;;;;;;5050801;28;20060;-89
2022/11/20 13:11:45;;;;;;;32.60;18.95;;;;;;;;;;5050526;28;20067;-88
2022/11/20 13:14:34;;;;;;;13.95;10.93;;;;;;;;;;5034430;28;20049;-88
2022/11/20 13:17:18;;;;;;;18.02;12.73;;;;;;;;;;5049963;28;20055;-88
2022/11/20 13:19:54;;;;;;;14.90;10.50;;;;;;;;;;5050418;28;20059;-88
2022/11/20 13:22:25;;;;;;;16.23;11.30;;;;;;;;;;5051467;28;20144;-88
2022/11/20 13:24:53;;;;;;;14.68;10.38;;;;;;;;;;5051013;28;20124;-89
2022/11/20 13:27:24;;;;;;;9.20;7.35;;;;;;;;;;5053743;28;20051;-89
2022/11/20 13:30:17;;;;;;;9.48;7.63;;;;;;;;;;5042030;28;20057;-89
2022/11/20 13:32:57;;;;;;;7.82;6.63;;;;;;;;;;5049885;28;20053;-90
2022/11/20 13:35:29;;;;;;;7.78;6.20;;;;;;;;;;5035542;28;20077;-90
2022/11/20 13:38:03;;;;;;;11.23;6.60;;;;;;;;;;5033818;28;20049;-89
2022/11/20 13:40:30;;;;;;;15.48;7.05;;;;;;;;;;5033927;28;20132;-88
2022/11/20 13:43:16;;;;;;;9.77;7.25;;;;;;;;;;5034317;28;20057;-90
2022/11/20 13:45:54;;;;;;;8.60;6.32;;;;;;;;;;5046047;28;20049;-88
2022/11/20 13:48:26;;;;;;;10.48;7.95;;;;;;;;;;5038975;28;20132;-89
2022/11/20 13:51:00;;;;;;;9.00;6.85;;;;;;;;;;5034392;28;20053;-89
2022/11/20 13:53:36;;;;;;;10.15;7.43;;;;;;;;;;5034322;28;20052;-89
2022/11/20 13:56:03;;;;;;;;;;;;;;;;;;5035714;28;20064;-90
2022/11/20 13:58:40;;;;;;;9.85;7.50;;;;;;;;;;5035098;28;19977;-90
2022/11/20 14:01:26;;;;;;;8.75;6.90;;;;;;;;;;5033566;28;20059;-90
2022/11/20 14:04:18;;;;;;;34.45;19.95;;;;;;;;;;5033908;28;20045;-91
2022/11/20 14:07:06;;;;;;;189.55;109.30;;;;;;;;;;5016344;28;20144;-91
2022/11/20 14:09:40;;;;;;;200.23;117.75;;;;;;;;;;5049512;28;20049;-90
2022/11/20 14:12:20;;;;;;;83.68;48.45;;;;;;;;;;5040954;28;20545;-92
2022/11/20 14:14:54;;;;;;;34.53;21.33;;;;;;;;;;5049413;28;20107;-91
2022/11/20 14:17:22;;;;;;;43.17;27.90;;;;;;;;;;5049292;28;20053;-91
2022/11/20 14:19:50;;;;;;;61.55;37.35;;;;;;;;;;5048259;28;20063;-91
2022/11/20 14:22:30;;;;;;;64.93;38.72;;;;;;;;;;5047369;28;20509;-91
2022/11/20 14:25:23;;;;;;;75.05;41.33;;;;;;;;;;5038094;28;20403;-91
2022/11/20 14:28:00;;;;;;;63.17;37.28;;;;;;;;;;5047958;28;20041;-91
2022/11/20 14:30:52;;;;;;;51.15;30.65;;;;;;;;;;5048878;28;20145;-92
2022/11/20 14:33:35;;;;;;;36.88;23.10;;;;;;;;;;5032062;28;20041;-91
2022/11/20 14:36:05;;;;;;;40.72;24.20;;;;;;;;;;5048409;28;20053;-91
2022/11/20 14:38:35;;;;;;;50.03;30.05;;;;;;;;;;5048074;28;20057;-91
2022/11/20 14:41:31;;;;;;;32.97;21.58;;;;;;;;;;5034860;28;20081;-91
2022/11/20 14:44:13;;;;;;;41.30;24.92;;;;;;;;;;5040641;28;20071;-91
2022/11/20 14:46:41;;;;;;;41.70;24.45;;;;;;;;;;5042684;28;20132;-91
2022/11/20 14:49:26;;;;;;;40.25;23.60;;;;;;;;;;5040646;28;20480;-92
2022/11/20 14:52:11;;;;;;;44.70;27.75;;;;;;;;;;5040142;28;20061;-91